sensor_id;sensor_type;location;lat;lon;timestamp;pressure;altitude;pressure_sealevel;temperature;humidity
54854;BME280;40747;49.480;8.658;2023-03-05T00:00:34;100749.91;;;4.41;84.45
54854;BME280;40747;49.480;8.658;2023-03-05T00:03:00;100742.06;;;4.46;84.32
54854;BME280;40747;49.480;8.658;2023-03-05T00:05:25;100750.78;;;4.31;83.30
54854;BME280;40747;49.480;8.658;2023-03-05T00:07:50;100746.44;;;4.52;82.98
54854;BME280;40747;49.480;8.658;2023-03-05T00:10:16;100749.03;;;4.64;82.18
54854;BME280;40747;49.480;8.658;2023-03-05T00:12:41;100741.25;;;4.66;82.69
54854;BME280;40747;49.480;8.658;2023-03-05T00:15:07;100740.38;;;4.67;82.02
54854;BME280;40747;49.480;8.658;2023-03-05T00:17:33;100750.81;;;4.82;81.55
54854;BME280;40747;49.480;8.658;2023-03-05T00:19:58;100746.47;;;4.83;80.63
54854;BME280;40747;49.480;8.658;2023-03-05T00:22:24;100749.06;;;4.87;81.29
54854;BME280;40747;49.480;8.658;2023-03-05T00:24:50;100742.09;;;4.88;80.41
54854;BME280;40747;49.480;8.658;2023-03-05T00:27:15;100733.41;;;4.92;80.96
54854;BME280;40747;49.480;8.658;2023-03-05T00:29:41;100734.28;;;4.88;81.75
54854;BME280;40747;49.480;8.658;2023-03-05T00:32:06;100728.19;;;4.90;81.43
54854;BME280;40747;49.480;8.658;2023-03-05T00:34:31;100733.41;;;4.75;81.64
54854;BME280;40747;49.480;8.658;2023-03-05T00:36:56;100734.28;;;4.66;81.08
54854;BME280;40747;49.480;8.658;2023-03-05T00:39:22;100733.44;;;4.72;81.35
54854;BME280;40747;49.480;8.658;2023-03-05T00:41:47;100735.13;;;4.81;81.80
54854;BME280;40747;49.480;8.658;2023-03-05T00:44:13;100733.41;;;4.81;80.73
54854;BME280;40747;49.480;8.658;2023-03-05T00:46:38;100724.72;;;4.85;81.00
54854;BME280;40747;49.480;8.658;2023-03-05T00:49:04;100722.97;;;4.89;80.80
54854;BME280;40747;49.480;8.658;2023-03-05T00:51:30;100714.25;;;4.87;81.03
54854;BME280;40747;49.480;8.658;2023-03-05T00:53:55;100723.81;;;4.75;80.50
54854;BME280;40747;49.480;8.658;2023-03-05T00:56:21;100722.06;;;4.88;81.78
54854;BME280;40747;49.480;8.658;2023-03-05T00:58:46;100707.28;;;4.98;82.56
54854;BME280;40747;49.480;8.658;2023-03-05T01:01:12;100698.59;;;4.99;82.55
54854;BME280;40747;49.480;8.658;2023-03-05T01:03:37;100700.31;;;4.91;82.16
54854;BME280;40747;49.480;8.658;2023-03-05T01:06:06;100704.69;;;4.95;82.63
54854;BME280;40747;49.480;8.658;2023-03-05T01:08:32;100701.19;;;4.99;82.53
54854;BME280;40747;49.480;8.658;2023-03-05T01:10:57;100701.19;;;5.02;82.62
54854;BME280;40747;49.480;8.658;2023-03-05T01:13:23;100695.97;;;5.02;82.86
54854;BME280;40747;49.480;8.658;2023-03-05T01:15:48;100695.09;;;5.00;82.86
54854;BME280;40747;49.480;8.658;2023-03-05T01:18:15;100690.75;;;5.05;82.76
54854;BME280;40747;49.480;8.658;2023-03-05T01:20:41;100699.47;;;4.90;82.00
54854;BME280;40747;49.480;8.658;2023-03-05T01:23:07;100690.75;;;5.01;81.49
54854;BME280;40747;49.480;8.658;2023-03-05T01:25:32;100683.78;;;5.00;82.79
54854;BME280;40747;49.480;8.658;2023-03-05T01:27:58;100685.50;;;5.08;83.07
54854;BME280;40747;49.480;8.658;2023-03-05T01:30:23;100682.91;;;5.01;83.03
54854;BME280;40747;49.480;8.658;2023-03-05T01:32:48;100678.56;;;4.92;83.62
54854;BME280;40747;49.480;8.658;2023-03-05T01:35:16;100683.78;;;4.98;83.11
54854;BME280;40747;49.480;8.658;2023-03-05T01:37:42;100678.59;;;5.01;83.34
54854;BME280;40747;49.480;8.658;2023-03-05T01:40:10;100669.88;;;5.04;84.09
54854;BME280;40747;49.480;8.658;2023-03-05T01:42:36;100670.72;;;4.98;83.50
54854;BME280;40747;49.480;8.658;2023-03-05T01:45:12;100671.63;;;4.94;84.74
54854;BME280;40747;49.480;8.658;2023-03-05T01:47:38;100665.53;;;4.78;84.28
54854;BME280;40747;49.480;8.658;2023-03-05T01:50:05;100667.28;;;4.71;84.11
54854;BME280;40747;49.480;8.658;2023-03-05T01:52:33;100668.16;;;4.78;84.23
54854;BME280;40747;49.480;8.658;2023-03-05T01:55:03;100661.22;;;4.63;85.60
54854;BME280;40747;49.480;8.658;2023-03-05T01:57:35;100655.13;;;4.70;85.01
54854;BME280;40747;49.480;8.658;2023-03-05T02:00:09;100655.13;;;4.70;85.39
54854;BME280;40747;49.480;8.658;2023-03-05T02:02:35;100655.09;;;4.76;84.64
54854;BME280;40747;49.480;8.658;2023-03-05T02:05:10;100645.56;;;4.66;84.37
54854;BME280;40747;49.480;8.658;2023-03-05T02:07:37;100652.53;;;4.67;84.28
54854;BME280;40747;49.480;8.658;2023-03-05T02:10:18;100656.88;;;4.74;85.04
54854;BME280;40747;49.480;8.658;2023-03-05T02:12:46;100662.06;;;4.71;86.11
54854;BME280;40747;49.480;8.658;2023-03-05T02:15:12;100661.22;;;4.63;85.92
54854;BME280;40747;49.480;8.658;2023-03-05T02:17:37;100658.59;;;4.54;86.69
54854;BME280;40747;49.480;8.658;2023-03-05T02:20:07;100654.25;;;4.62;86.20
54854;BME280;40747;49.480;8.658;2023-03-05T02:22:33;100653.38;;;4.66;86.15
54854;BME280;40747;49.480;8.658;2023-03-05T02:24:58;100648.16;;;4.72;86.02
54854;BME280;40747;49.480;8.658;2023-03-05T02:27:27;100643.84;;;4.53;87.51
54854;BME280;40747;49.480;8.658;2023-03-05T02:29:59;100634.28;;;4.32;88.70
54854;BME280;40747;49.480;8.658;2023-03-05T02:32:24;100636.00;;;4.22;88.91
54854;BME280;40747;49.480;8.658;2023-03-05T02:34:50;100624.69;;;4.32;87.25
54854;BME280;40747;49.480;8.658;2023-03-05T02:37:15;100630.78;;;4.36;86.79
54854;BME280;40747;49.480;8.658;2023-03-05T02:39:40;100617.75;;;4.40;86.33
54854;BME280;40747;49.480;8.658;2023-03-05T02:42:06;100622.97;;;4.47;86.77
54854;BME280;40747;49.480;8.658;2023-03-05T02:44:31;100633.41;;;4.54;86.68
54854;BME280;40747;49.480;8.658;2023-03-05T02:46:56;100629.03;;;4.61;86.18
54854;BME280;40747;49.480;8.658;2023-03-05T02:49:22;100622.94;;;4.59;85.75
54854;BME280;40747;49.480;8.658;2023-03-05T02:51:47;100611.69;;;4.41;85.84
54854;BME280;40747;49.480;8.658;2023-03-05T02:54:12;100627.31;;;4.57;85.53
54854;BME280;40747;49.480;8.658;2023-03-05T02:56:37;100613.38;;;4.56;85.51
54854;BME280;40747;49.480;8.658;2023-03-05T02:59:03;100605.56;;;4.52;85.57
54854;BME280;40747;49.480;8.658;2023-03-05T03:01:29;100616.88;;;4.65;85.16
54854;BME280;40747;49.480;8.658;2023-03-05T03:03:54;100624.66;;;4.74;85.62
54854;BME280;40747;49.480;8.658;2023-03-05T03:06:20;100612.50;;;4.68;85.07
54854;BME280;40747;49.480;8.658;2023-03-05T03:08:45;100609.91;;;4.57;85.47
54854;BME280;40747;49.480;8.658;2023-03-05T03:11:11;100599.47;;;4.61;86.11
54854;BME280;40747;49.480;8.658;2023-03-05T03:13:37;100603.81;;;4.66;85.86
54854;BME280;40747;49.480;8.658;2023-03-05T03:16:08;100597.72;;;4.69;86.20
54854;BME280;40747;49.480;8.658;2023-03-05T03:18:33;100597.69;;;4.70;85.85
54854;BME280;40747;49.480;8.658;2023-03-05T03:20:59;100591.63;;;4.71;86.29
54854;BME280;40747;49.480;8.658;2023-03-05T03:23:25;100585.56;;;4.69;86.51
54854;BME280;40747;49.480;8.658;2023-03-05T03:25:50;100583.81;;;4.56;87.28
54854;BME280;40747;49.480;8.658;2023-03-05T03:28:15;100588.19;;;4.32;88.76
54854;BME280;40747;49.480;8.658;2023-03-05T03:30:41;100585.59;;;4.41;88.61
54854;BME280;40747;49.480;8.658;2023-03-05T03:33:06;100567.34;;;4.20;89.38
54854;BME280;40747;49.480;8.658;2023-03-05T03:35:32;100574.28;;;4.32;89.76
54854;BME280;40747;49.480;8.658;2023-03-05T03:37:57;100585.59;;;4.31;89.99
54854;BME280;40747;49.480;8.658;2023-03-05T03:40:22;100573.41;;;3.91;89.88
54854;BME280;40747;49.480;8.658;2023-03-05T03:42:50;100565.59;;;3.92;90.93
54854;BME280;40747;49.480;8.658;2023-03-05T03:45:16;100573.44;;;4.20;91.15
54854;BME280;40747;49.480;8.658;2023-03-05T03:47:41;100576.91;;;4.29;90.75
54854;BME280;40747;49.480;8.658;2023-03-05T03:50:07;100563.00;;;4.26;89.94
54854;BME280;40747;49.480;8.658;2023-03-05T03:52:32;100572.56;;;4.29;89.05
54854;BME280;40747;49.480;8.658;2023-03-05T03:54:57;100573.41;;;4.28;89.03
54854;BME280;40747;49.480;8.658;2023-03-05T03:57:29;100562.13;;;4.23;88.90
54854;BME280;40747;49.480;8.658;2023-03-05T03:59:54;100564.72;;;4.38;88.38
54854;BME280;40747;49.480;8.658;2023-03-05T04:02:20;100559.50;;;4.32;88.05
54854;BME280;40747;49.480;8.658;2023-03-05T04:04:45;100561.22;;;4.41;88.25
54854;BME280;40747;49.480;8.658;2023-03-05T04:07:11;100567.31;;;4.45;87.97
54854;BME280;40747;49.480;8.658;2023-03-05T04:09:36;100562.13;;;4.29;88.22
54854;BME280;40747;49.480;8.658;2023-03-05T04:12:02;100551.69;;;4.34;87.82
54854;BME280;40747;49.480;8.658;2023-03-05T04:14:27;100554.28;;;4.43;88.14
54854;BME280;40747;49.480;8.658;2023-03-05T04:16:53;100545.63;;;4.30;87.99
54854;BME280;40747;49.480;8.658;2023-03-05T04:19:18;100544.72;;;4.40;88.06
54854;BME280;40747;49.480;8.658;2023-03-05T04:21:43;100541.25;;;4.37;87.82
54854;BME280;40747;49.480;8.658;2023-03-05T04:24:09;100543.00;;;4.24;88.14
54854;BME280;40747;49.480;8.658;2023-03-05T04:26:34;100529.13;;;4.02;88.90
54854;BME280;40747;49.480;8.658;2023-03-05T04:29:00;100536.94;;;4.02;90.04
54854;BME280;40747;49.480;8.658;2023-03-05T04:31:25;100539.53;;;4.13;89.68
54854;BME280;40747;49.480;8.658;2023-03-05T04:33:50;100541.31;;;4.10;89.45
54854;BME280;40747;49.480;8.658;2023-03-05T04:36:15;100529.13;;;4.16;88.77
54854;BME280;40747;49.480;8.658;2023-03-05T04:38:41;100538.66;;;4.21;89.18
54854;BME280;40747;49.480;8.658;2023-03-05T04:41:06;100526.50;;;4.19;89.28
54854;BME280;40747;49.480;8.658;2023-03-05T04:43:31;100531.72;;;4.20;89.89
54854;BME280;40747;49.480;8.658;2023-03-05T04:45:57;100542.13;;;4.14;89.77
54854;BME280;40747;49.480;8.658;2023-03-05T04:48:22;100535.19;;;4.16;90.92
54854;BME280;40747;49.480;8.658;2023-03-05T04:50:47;100536.94;;;4.11;91.09
54854;BME280;40747;49.480;8.658;2023-03-05T04:53:13;100537.78;;;4.12;91.35
54854;BME280;40747;49.480;8.658;2023-03-05T04:55:38;100542.16;;;4.02;91.68
54854;BME280;40747;49.480;8.658;2023-03-05T04:58:03;100521.28;;;3.92;90.99
54854;BME280;40747;49.480;8.658;2023-03-05T05:00:28;100539.56;;;3.94;90.99
54854;BME280;40747;49.480;8.658;2023-03-05T05:02:54;100542.13;;;3.77;90.08
54854;BME280;40747;49.480;8.658;2023-03-05T05:05:21;100539.53;;;3.68;89.38
54854;BME280;40747;49.480;8.658;2023-03-05T05:07:47;100534.31;;;3.66;89.85
54854;BME280;40747;49.480;8.658;2023-03-05T05:10:13;100529.13;;;3.79;89.18
54854;BME280;40747;49.480;8.658;2023-03-05T05:12:39;100534.34;;;3.91;89.37
54854;BME280;40747;49.480;8.658;2023-03-05T05:15:06;100523.94;;;3.94;87.82
54854;BME280;40747;49.480;8.658;2023-03-05T05:17:31;100526.50;;;3.92;87.75
54854;BME280;40747;49.480;8.658;2023-03-05T05:19:58;100526.50;;;3.99;88.01
54854;BME280;40747;49.480;8.658;2023-03-05T05:22:23;100533.47;;;4.01;87.73
54854;BME280;40747;49.480;8.658;2023-03-05T05:24:49;100523.03;;;4.00;87.37
54854;BME280;40747;49.480;8.658;2023-03-05T05:27:14;100532.59;;;4.08;87.00
54854;BME280;40747;49.480;8.658;2023-03-05T05:29:40;100533.47;;;4.12;86.44
54854;BME280;40747;49.480;8.658;2023-03-05T05:32:05;100532.59;;;4.16;86.57
54854;BME280;40747;49.480;8.658;2023-03-05T05:34:31;100516.09;;;3.94;86.94
54854;BME280;40747;49.480;8.658;2023-03-05T05:36:56;100525.63;;;3.95;86.94
54854;BME280;40747;49.480;8.658;2023-03-05T05:39:21;100514.38;;;3.91;87.54
54854;BME280;40747;49.480;8.658;2023-03-05T05:41:50;100525.66;;;3.86;87.87
54854;BME280;40747;49.480;8.658;2023-03-05T05:44:15;100523.06;;;3.97;88.31
54854;BME280;40747;49.480;8.658;2023-03-05T05:46:41;100528.25;;;4.00;87.44
54854;BME280;40747;49.480;8.658;2023-03-05T05:49:06;100521.28;;;4.00;88.17
54854;BME280;40747;49.480;8.658;2023-03-05T05:51:31;100526.50;;;3.99;87.58
54854;BME280;40747;49.480;8.658;2023-03-05T05:53:56;100521.28;;;3.99;87.56
54854;BME280;40747;49.480;8.658;2023-03-05T05:56:22;100524.78;;;4.10;87.07
54854;BME280;40747;49.480;8.658;2023-03-05T05:58:48;100523.03;;;4.14;87.38
54854;BME280;40747;49.480;8.658;2023-03-05T06:01:23;100503.94;;;4.07;86.14
54854;BME280;40747;49.480;8.658;2023-03-05T06:03:48;100517.81;;;4.20;86.55
54854;BME280;40747;49.480;8.658;2023-03-05T06:06:16;100508.25;;;4.25;85.45
54854;BME280;40747;49.480;8.658;2023-03-05T06:08:42;100502.16;;;4.26;86.01
54854;BME280;40747;49.480;8.658;2023-03-05T06:11:07;100506.47;;;4.33;85.94
54854;BME280;40747;49.480;8.658;2023-03-05T06:13:33;100507.34;;;4.32;86.22
54854;BME280;40747;49.480;8.658;2023-03-05T06:16:02;100510.81;;;4.36;86.92
54854;BME280;40747;49.480;8.658;2023-03-05T06:18:28;100496.09;;;4.18;87.04
54854;BME280;40747;49.480;8.658;2023-03-05T06:21:02;100520.38;;;4.32;88.09
54854;BME280;40747;49.480;8.658;2023-03-05T06:23:28;100513.44;;;4.37;89.19
54854;BME280;40747;49.480;8.658;2023-03-05T06:25:53;100502.19;;;4.12;88.98
54854;BME280;40747;49.480;8.658;2023-03-05T06:28:19;100520.41;;;4.23;90.34
54854;BME280;40747;49.480;8.658;2023-03-05T06:30:44;100517.81;;;4.07;89.76
54854;BME280;40747;49.480;8.658;2023-03-05T06:33:10;100516.06;;;4.20;89.58
54854;BME280;40747;49.480;8.658;2023-03-05T06:35:38;100511.72;;;4.25;89.30
54854;BME280;40747;49.480;8.658;2023-03-05T06:38:08;100517.81;;;4.28;89.41
54854;BME280;40747;49.480;8.658;2023-03-05T06:40:34;100509.06;;;4.35;88.64
54854;BME280;40747;49.480;8.658;2023-03-05T06:42:59;100518.66;;;4.28;88.71
54854;BME280;40747;49.480;8.658;2023-03-05T06:45:25;100508.22;;;4.34;89.30
54854;BME280;40747;49.480;8.658;2023-03-05T06:47:51;100522.16;;;4.24;89.95
54854;BME280;40747;49.480;8.658;2023-03-05T06:50:16;100510.00;;;4.09;90.92
54854;BME280;40747;49.480;8.658;2023-03-05T06:52:41;100513.47;;;4.16;89.93
54854;BME280;40747;49.480;8.658;2023-03-05T06:55:08;100507.38;;;4.14;90.43
54854;BME280;40747;49.480;8.658;2023-03-05T06:57:35;100516.91;;;4.27;90.38
54854;BME280;40747;49.480;8.658;2023-03-05T07:00:00;100509.97;;;4.29;89.71
54854;BME280;40747;49.480;8.658;2023-03-05T07:02:26;100507.34;;;4.41;89.07
54854;BME280;40747;49.480;8.658;2023-03-05T07:04:51;100506.47;;;4.46;88.81
54854;BME280;40747;49.480;8.658;2023-03-05T07:07:16;100508.19;;;4.48;90.47
54854;BME280;40747;49.480;8.658;2023-03-05T07:09:41;100510.84;;;4.31;90.86
54854;BME280;40747;49.480;8.658;2023-03-05T07:12:10;100503.03;;;4.19;91.84
54854;BME280;40747;49.480;8.658;2023-03-05T07:14:37;100513.44;;;4.22;92.05
54854;BME280;40747;49.480;8.658;2023-03-05T07:17:05;100514.34;;;4.18;92.63
54854;BME280;40747;49.480;8.658;2023-03-05T07:19:30;100511.72;;;4.12;91.78
54854;BME280;40747;49.480;8.658;2023-03-05T07:21:56;100509.13;;;4.08;91.52
54854;BME280;40747;49.480;8.658;2023-03-05T07:24:21;100506.53;;;4.15;90.57
54854;BME280;40747;49.480;8.658;2023-03-05T07:26:48;100501.28;;;4.12;90.25
54854;BME280;40747;49.480;8.658;2023-03-05T07:29:14;100504.75;;;4.28;89.29
54854;BME280;40747;49.480;8.658;2023-03-05T07:31:39;100489.97;;;4.28;88.69
54854;BME280;40747;49.480;8.658;2023-03-05T07:34:04;100497.81;;;4.23;88.53
54854;BME280;40747;49.480;8.658;2023-03-05T07:36:30;100495.22;;;4.16;88.75
54854;BME280;40747;49.480;8.658;2023-03-05T07:38:56;100496.06;;;4.25;89.50
54854;BME280;40747;49.480;8.658;2023-03-05T07:41:21;100490.84;;;4.30;88.56
54854;BME280;40747;49.480;8.658;2023-03-05T07:43:49;100502.13;;;4.31;88.50
54854;BME280;40747;49.480;8.658;2023-03-05T07:46:17;100499.53;;;4.32;87.54
54854;BME280;40747;49.480;8.658;2023-03-05T07:48:43;100491.69;;;4.38;87.30
54854;BME280;40747;49.480;8.658;2023-03-05T07:51:17;100496.03;;;4.44;87.52
54854;BME280;40747;49.480;8.658;2023-03-05T07:53:48;100504.72;;;4.49;86.77
54854;BME280;40747;49.480;8.658;2023-03-05T07:56:27;100497.72;;;4.56;86.91
54854;BME280;40747;49.480;8.658;2023-03-05T07:58:57;100499.47;;;4.63;85.99
54854;BME280;40747;49.480;8.658;2023-03-05T08:01:23;100496.84;;;4.65;87.19
54854;BME280;40747;49.480;8.658;2023-03-05T08:03:48;100505.50;;;4.71;86.69
54854;BME280;40747;49.480;8.658;2023-03-05T08:06:22;100499.41;;;4.75;85.98
54854;BME280;40747;49.480;8.658;2023-03-05T08:08:48;100506.38;;;4.64;85.26
54854;BME280;40747;49.480;8.658;2023-03-05T08:11:14;100501.16;;;4.69;85.98
54854;BME280;40747;49.480;8.658;2023-03-05T08:13:40;100501.31;;;3.96;87.81
54854;BME280;40747;49.480;8.658;2023-03-05T08:16:07;100501.31;;;3.56;90.58
54854;BME280;40747;49.480;8.658;2023-03-05T08:18:33;100496.97;;;3.56;91.90
54854;BME280;40747;49.480;8.658;2023-03-05T08:20:58;100500.44;;;3.71;92.14
54854;BME280;40747;49.480;8.658;2023-03-05T08:23:24;100491.75;;;3.56;92.56
54854;BME280;40747;49.480;8.658;2023-03-05T08:25:50;100489.16;;;3.46;93.17
54854;BME280;40747;49.480;8.658;2023-03-05T08:28:15;100488.28;;;3.88;92.51
54854;BME280;40747;49.480;8.658;2023-03-05T08:30:44;100488.25;;;4.22;91.57
54854;BME280;40747;49.480;8.658;2023-03-05T08:33:09;100480.44;;;4.21;89.45
54854;BME280;40747;49.480;8.658;2023-03-05T08:35:34;100482.97;;;4.49;89.70
54854;BME280;40747;49.480;8.658;2023-03-05T08:38:00;100485.50;;;4.64;87.61
54854;BME280;40747;49.480;8.658;2023-03-05T08:40:25;100479.31;;;4.93;87.35
54854;BME280;40747;49.480;8.658;2023-03-05T08:42:50;100475.81;;;4.97;86.19
54854;BME280;40747;49.480;8.658;2023-03-05T08:45:16;100476.56;;;5.16;86.56
54854;BME280;40747;49.480;8.658;2023-03-05T08:47:41;100479.13;;;5.27;85.79
54854;BME280;40747;49.480;8.658;2023-03-05T08:50:07;100474.84;;;5.17;85.55
54854;BME280;40747;49.480;8.658;2023-03-05T08:52:32;100472.19;;;5.24;86.25
54854;BME280;40747;49.480;8.658;2023-03-05T08:54:58;100475.75;;;5.08;85.78
54854;BME280;40747;49.480;8.658;2023-03-05T08:57:23;100484.44;;;5.13;86.56
54854;BME280;40747;49.480;8.658;2023-03-05T08:59:48;100478.38;;;5.09;86.15
54854;BME280;40747;49.480;8.658;2023-03-05T09:02:14;100478.38;;;5.09;85.53
54854;BME280;40747;49.480;8.658;2023-03-05T09:04:39;100482.63;;;5.24;84.67
54854;BME280;40747;49.480;8.658;2023-03-05T09:07:05;100469.50;;;5.38;84.93
54854;BME280;40747;49.480;8.658;2023-03-05T09:09:30;100478.31;;;5.22;85.26
54854;BME280;40747;49.480;8.658;2023-03-05T09:11:58;100471.44;;;5.05;84.88
54854;BME280;40747;49.480;8.658;2023-03-05T09:14:24;100471.28;;;5.25;85.94
54854;BME280;40747;49.480;8.658;2023-03-05T09:16:49;100471.47;;;4.98;86.37
54854;BME280;40747;49.480;8.658;2023-03-05T09:19:14;100462.97;;;4.55;87.98
54854;BME280;40747;49.480;8.658;2023-03-05T09:21:40;100461.25;;;4.42;89.12
54854;BME280;40747;49.480;8.658;2023-03-05T09:24:06;100456.06;;;4.39;88.52
54854;BME280;40747;49.480;8.658;2023-03-05T09:26:31;100461.28;;;4.28;88.19
54854;BME280;40747;49.480;8.658;2023-03-05T09:28:57;100462.22;;;4.15;89.35
54854;BME280;40747;49.480;8.658;2023-03-05T09:31:22;100455.22;;;4.23;89.05
54854;BME280;40747;49.480;8.658;2023-03-05T09:33:48;100456.09;;;4.22;87.75
54854;BME280;40747;49.480;8.658;2023-03-05T09:36:22;100448.28;;;4.25;88.43
54854;BME280;40747;49.480;8.658;2023-03-05T09:38:48;100448.16;;;4.51;87.45
54854;BME280;40747;49.480;8.658;2023-03-05T09:44:36;100445.56;;;4.56;86.52
54854;BME280;40747;49.480;8.658;2023-03-05T09:47:27;100441.25;;;4.47;84.61
54854;BME280;40747;49.480;8.658;2023-03-05T09:52:54;100442.09;;;4.46;84.35
54854;BME280;40747;49.480;8.658;2023-03-05T09:55:32;100438.66;;;4.44;83.18
54854;BME280;40747;49.480;8.658;2023-03-05T09:58:05;100439.56;;;4.34;83.99
54854;BME280;40747;49.480;8.658;2023-03-05T10:00:39;100435.25;;;4.25;84.85
54854;BME280;40747;49.480;8.658;2023-03-05T10:03:11;100429.19;;;4.10;85.97
54854;BME280;40747;49.480;8.658;2023-03-05T10:08:15;100423.09;;;4.21;85.74
54854;BME280;40747;49.480;8.658;2023-03-05T10:10:48;100417.78;;;4.39;85.23
54854;BME280;40747;49.480;8.658;2023-03-05T10:13:27;100417.75;;;4.52;84.59
54854;BME280;40747;49.480;8.658;2023-03-05T10:16:06;100415.88;;;4.85;83.84
54854;BME280;40747;49.480;8.658;2023-03-05T10:18:36;100410.41;;;5.22;81.69
54854;BME280;40747;49.480;8.658;2023-03-05T10:21:17;100411.22;;;5.29;80.24
54854;BME280;40747;49.480;8.658;2023-03-05T10:26:42;100402.44;;;5.39;78.67
54854;BME280;40747;49.480;8.658;2023-03-05T10:29:35;100398.84;;;5.51;77.67
54854;BME280;40747;49.480;8.658;2023-03-05T10:37:19;100400.69;;;5.41;77.32
54854;BME280;40747;49.480;8.658;2023-03-05T10:39:50;100392.81;;;5.44;75.53
54854;BME280;40747;49.480;8.658;2023-03-05T10:47:27;100389.22;;;5.54;74.40
54854;BME280;40747;49.480;8.658;2023-03-05T10:49:55;100385.75;;;5.52;73.83
54854;BME280;40747;49.480;8.658;2023-03-05T10:52:30;100393.63;;;5.51;73.88
54854;BME280;40747;49.480;8.658;2023-03-05T10:54:57;100376.91;;;5.67;73.40
54854;BME280;40747;49.480;8.658;2023-03-05T10:57:24;100376.69;;;5.89;72.97
54854;BME280;40747;49.480;8.658;2023-03-05T11:00:06;100371.38;;;5.97;72.55
54854;BME280;40747;49.480;8.658;2023-03-05T11:02:32;100361.81;;;5.96;72.17
54854;BME280;40747;49.480;8.658;2023-03-05T11:04:58;100369.00;;;5.78;71.98
54854;BME280;40747;49.480;8.658;2023-03-05T11:10:15;100363.69;;;5.86;72.11
54854;BME280;40747;49.480;8.658;2023-03-05T11:12:41;100349.72;;;5.85;72.23
54854;BME280;40747;49.480;8.658;2023-03-05T11:17:42;100355.91;;;5.77;72.69
54854;BME280;40747;49.480;8.658;2023-03-05T11:23:19;100353.09;;;5.95;72.10
54854;BME280;40747;49.480;8.658;2023-03-05T11:28:17;100343.31;;;6.16;71.75
54854;BME280;40747;49.480;8.658;2023-03-05T11:30:56;100336.69;;;6.55;70.76
54854;BME280;40747;49.480;8.658;2023-03-05T11:33:22;100332.38;;;6.53;70.50
54854;BME280;40747;49.480;8.658;2023-03-05T11:35:49;100331.53;;;6.49;69.38
54854;BME280;40747;49.480;8.658;2023-03-05T11:38:19;100325.47;;;6.46;69.01
54854;BME280;40747;49.480;8.658;2023-03-05T11:40:45;100322.78;;;6.52;69.00
54854;BME280;40747;49.480;8.658;2023-03-05T11:43:17;100328.47;;;6.16;69.29
54854;BME280;40747;49.480;8.658;2023-03-05T11:45:44;100324.53;;;5.80;70.67
54854;BME280;40747;49.480;8.658;2023-03-05T11:48:24;100325.94;;;5.23;72.49
54854;BME280;40747;49.480;8.658;2023-03-05T11:50:54;100318.91;;;5.31;72.11
54854;BME280;40747;49.480;8.658;2023-03-05T11:53:27;100320.78;;;5.15;71.64
54854;BME280;40747;49.480;8.658;2023-03-05T11:55:58;100319.03;;;5.17;71.91
54854;BME280;40747;49.480;8.658;2023-03-05T11:58:43;100320.91;;;5.00;73.00
54854;BME280;40747;49.480;8.658;2023-03-05T12:01:14;100310.16;;;5.38;70.10
54854;BME280;40747;49.480;8.658;2023-03-05T12:03:41;100294.84;;;5.84;69.26
54854;BME280;40747;49.480;8.658;2023-03-05T12:08:59;100294.88;;;6.52;67.78
54854;BME280;40747;49.480;8.658;2023-03-05T12:11:28;100291.13;;;6.70;67.27
54854;BME280;40747;49.480;8.658;2023-03-05T12:13:57;100275.34;;;6.73;64.08
54854;BME280;40747;49.480;8.658;2023-03-05T12:16:36;100269.09;;;6.84;64.53
54854;BME280;40747;49.480;8.658;2023-03-05T12:19:25;100266.56;;;6.79;63.91
54854;BME280;40747;49.480;8.658;2023-03-05T12:21:55;100270.09;;;6.75;63.28
54854;BME280;40747;49.480;8.658;2023-03-05T12:31:52;100252.63;;;7.27;62.68
54854;BME280;40747;49.480;8.658;2023-03-05T12:34:46;100247.09;;;6.96;62.10
54854;BME280;40747;49.480;8.658;2023-03-05T12:47:43;100237.72;;;5.53;67.75
54854;BME280;40747;49.480;8.658;2023-03-05T12:58:16;100229.25;;;5.29;67.25
54854;BME280;40747;49.480;8.658;2023-03-05T13:00:58;100233.78;;;5.12;68.82
54854;BME280;40747;49.480;8.658;2023-03-05T13:03:31;100227.59;;;5.20;70.21
54854;BME280;40747;49.480;8.658;2023-03-05T13:05:58;100226.16;;;4.90;71.21
54854;BME280;40747;49.480;8.658;2023-03-05T13:08:27;100226.84;;;5.07;71.10
54854;BME280;40747;49.480;8.658;2023-03-05T13:10:56;100218.84;;;5.23;70.86
54854;BME280;40747;49.480;8.658;2023-03-05T13:13:24;100217.09;;;5.25;71.22
54854;BME280;40747;49.480;8.658;2023-03-05T13:15:51;100211.78;;;5.34;70.54
54854;BME280;40747;49.480;8.658;2023-03-05T13:18:22;100199.63;;;5.33;70.75
54854;BME280;40747;49.480;8.658;2023-03-05T13:23:36;100214.97;;;5.61;70.46
54854;BME280;40747;49.480;8.658;2023-03-05T13:28:36;100204.06;;;5.97;70.33
54854;BME280;40747;49.480;8.658;2023-03-05T13:31:12;100202.44;;;5.86;68.71
54854;BME280;40747;49.480;8.658;2023-03-05T13:33:38;100195.72;;;5.68;69.49
54854;BME280;40747;49.480;8.658;2023-03-05T13:36:05;100199.78;;;5.89;69.05
54854;BME280;40747;49.480;8.658;2023-03-05T13:38:38;100193.72;;;5.87;68.14
54854;BME280;40747;49.480;8.658;2023-03-05T13:41:16;100191.28;;;5.73;69.72
54854;BME280;40747;49.480;8.658;2023-03-05T13:43:46;100193.06;;;5.70;70.44
54854;BME280;40747;49.480;8.658;2023-03-05T13:46:12;100181.81;;;5.68;69.40
54854;BME280;40747;49.480;8.658;2023-03-05T13:48:37;100183.47;;;5.73;69.99
54854;BME280;40747;49.480;8.658;2023-03-05T13:51:03;100174.06;;;5.58;69.45
54854;BME280;40747;49.480;8.658;2023-03-05T13:53:33;100181.00;;;5.60;68.83
54854;BME280;40747;49.480;8.658;2023-03-05T13:56:07;100169.63;;;5.65;69.27
54854;BME280;40747;49.480;8.658;2023-03-05T13:58:42;100179.69;;;5.95;68.17
54854;BME280;40747;49.480;8.658;2023-03-05T14:04:04;100169.56;;;6.34;67.39
54854;BME280;40747;49.480;8.658;2023-03-05T14:06:33;100165.78;;;6.53;66.64
54854;BME280;40747;49.480;8.658;2023-03-05T14:09:07;100163.03;;;6.61;66.55
54854;BME280;40747;49.480;8.658;2023-03-05T14:11:41;100166.50;;;6.62;65.42